sensor_id;sensor_type;location;lat;lon;timestamp;temperature;humidity
21772;DHT22;11047;47.904;8.110;2023-11-18T00:00:14;2.70;99.90
21772;DHT22;11047;47.904;8.110;2023-11-18T00:02:42;2.70;99.90
21772;DHT22;11047;47.904;8.110;2023-11-18T00:05:11;2.70;99.90
21772;DHT22;11047;47.904;8.110;2023-11-18T00:07:39;2.80;99.90
21772;DHT22;11047;47.904;8.110;2023-11-18T00:10:07;3.30;99.90
21772;DHT22;11047;47.904;8.110;2023-11-18T00:12:34;2.70;99.90
21772;DHT22;11047;47.904;8.110;2023-11-18T00:15:01;2.70;99.90
21772;DHT22;11047;47.904;8.110;2023-11-18T00:17:29;2.60;99.90
21772;DHT22;11047;47.904;8.110;2023-11-18T00:19:57;2.50;99.90
21772;DHT22;11047;47.904;8.110;2023-11-18T00:22:25;2.50;99.90
21772;DHT22;11047;47.904;8.110;2023-11-18T00:24:53;2.60;99.90
21772;DHT22;11047;47.904;8.110;2023-11-18T00:27:20;2.50;99.90
21772;DHT22;11047;47.904;8.110;2023-11-18T00:29:48;2.50;99.90
21772;DHT22;11047;47.904;8.110;2023-11-18T00:32:15;2.40;99.90
21772;DHT22;11047;47.904;8.110;2023-11-18T00:34:42;2.30;99.90
21772;DHT22;11047;47.904;8.110;2023-11-18T00:37:10;2.30;99.90
21772;DHT22;11047;47.904;8.110;2023-11-18T00:39:38;2.20;99.90
21772;DHT22;11047;47.904;8.110;2023-11-18T00:42:05;2.20;99.90
21772;DHT22;11047;47.904;8.110;2023-11-18T00:44:32;2.10;99.90
21772;DHT22;11047;47.904;8.110;2023-11-18T00:46:59;2.00;99.90
21772;DHT22;11047;47.904;8.110;2023-11-18T00:49:28;1.90;99.90
21772;DHT22;11047;47.904;8.110;2023-11-18T00:51:55;1.80;99.90
21772;DHT22;11047;47.904;8.110;2023-11-18T00:54:22;1.90;99.90
21772;DHT22;11047;47.904;8.110;2023-11-18T00:56:51;1.70;99.90
21772;DHT22;11047;47.904;8.110;2023-11-18T00:59:17;1.70;99.90
21772;DHT22;11047;47.904;8.110;2023-11-18T01:01:44;1.60;99.90
21772;DHT22;11047;47.904;8.110;2023-11-18T01:04:11;1.60;99.90
21772;DHT22;11047;47.904;8.110;2023-11-18T01:06:38;1.70;99.90
21772;DHT22;11047;47.904;8.110;2023-11-18T01:09:05;1.70;99.90
21772;DHT22;11047;47.904;8.110;2023-11-18T01:11:34;1.60;99.90
21772;DHT22;11047;47.904;8.110;2023-11-18T01:14:03;1.60;99.90
21772;DHT22;11047;47.904;8.110;2023-11-18T01:16:30;1.50;99.90
21772;DHT22;11047;47.904;8.110;2023-11-18T01:18:57;1.50;99.90
21772;DHT22;11047;47.904;8.110;2023-11-18T01:21:23;1.40;99.90
21772;DHT22;11047;47.904;8.110;2023-11-18T01:23:50;1.60;99.90
21772;DHT22;11047;47.904;8.110;2023-11-18T01:26:17;1.60;99.90
21772;DHT22;11047;47.904;8.110;2023-11-18T01:28:44;1.60;99.90
21772;DHT22;11047;47.904;8.110;2023-11-18T01:31:13;1.50;99.90
21772;DHT22;11047;47.904;8.110;2023-11-18T01:33:40;1.60;99.90
21772;DHT22;11047;47.904;8.110;2023-11-18T01:36:08;1.50;99.90
21772;DHT22;11047;47.904;8.110;2023-11-18T01:38:36;1.60;99.90
21772;DHT22;11047;47.904;8.110;2023-11-18T01:41:03;1.70;99.90
21772;DHT22;11047;47.904;8.110;2023-11-18T01:43:31;1.60;99.90
21772;DHT22;11047;47.904;8.110;2023-11-18T01:45:58;1.70;99.90
21772;DHT22;11047;47.904;8.110;2023-11-18T01:48:28;1.70;99.90
21772;DHT22;11047;47.904;8.110;2023-11-18T01:50:56;1.70;99.90
21772;DHT22;11047;47.904;8.110;2023-11-18T01:53:24;1.60;99.90
21772;DHT22;11047;47.904;8.110;2023-11-18T01:55:51;1.60;99.90
21772;DHT22;11047;47.904;8.110;2023-11-18T01:58:18;1.70;99.90
21772;DHT22;11047;47.904;8.110;2023-11-18T02:00:50;1.60;99.90
21772;DHT22;11047;47.904;8.110;2023-11-18T02:03:18;1.50;99.90
21772;DHT22;11047;47.904;8.110;2023-11-18T02:05:47;1.50;99.90
21772;DHT22;11047;47.904;8.110;2023-11-18T02:08:14;1.60;99.90
21772;DHT22;11047;47.904;8.110;2023-11-18T02:10:47;1.60;99.90
21772;DHT22;11047;47.904;8.110;2023-11-18T02:13:22;1.60;99.90
21772;DHT22;11047;47.904;8.110;2023-11-18T02:15:53;1.60;99.90
21772;DHT22;11047;47.904;8.110;2023-11-18T02:18:21;1.60;99.90
21772;DHT22;11047;47.904;8.110;2023-11-18T02:20:50;1.60;99.90
21772;DHT22;11047;47.904;8.110;2023-11-18T02:23:17;1.80;99.90
21772;DHT22;11047;47.904;8.110;2023-11-18T02:25:46;1.50;99.90
21772;DHT22;11047;47.904;8.110;2023-11-18T02:28:13;1.40;99.90
21772;DHT22;11047;47.904;8.110;2023-11-18T02:30:40;1.40;99.90
21772;DHT22;11047;47.904;8.110;2023-11-18T02:33:14;1.20;99.90
21772;DHT22;11047;47.904;8.110;2023-11-18T02:35:48;1.40;99.90
21772;DHT22;11047;47.904;8.110;2023-11-18T02:38:22;1.20;99.90
21772;DHT22;11047;47.904;8.110;2023-11-18T02:40:53;1.40;99.90
21772;DHT22;11047;47.904;8.110;2023-11-18T02:43:24;1.20;99.90
21772;DHT22;11047;47.904;8.110;2023-11-18T02:45:54;1.30;99.90
21772;DHT22;11047;47.904;8.110;2023-11-18T02:48:23;1.30;99.90
21772;DHT22;11047;47.904;8.110;2023-11-18T02:50:50;1.20;99.90
21772;DHT22;11047;47.904;8.110;2023-11-18T02:53:16;1.20;99.90
21772;DHT22;11047;47.904;8.110;2023-11-18T02:55:43;1.10;99.90
21772;DHT22;11047;47.904;8.110;2023-11-18T02:58:11;1.10;99.90
21772;DHT22;11047;47.904;8.110;2023-11-18T03:00:38;1.10;99.90
21772;DHT22;11047;47.904;8.110;2023-11-18T03:03:05;1.00;99.90
21772;DHT22;11047;47.904;8.110;2023-11-18T03:05:32;1.10;99.90
21772;DHT22;11047;47.904;8.110;2023-11-18T03:07:59;1.10;99.90
21772;DHT22;11047;47.904;8.110;2023-11-18T03:10:26;1.20;99.90
21772;DHT22;11047;47.904;8.110;2023-11-18T03:12:55;1.10;99.90
21772;DHT22;11047;47.904;8.110;2023-11-18T03:15:23;1.10;99.90
21772;DHT22;11047;47.904;8.110;2023-11-18T03:17:52;1.10;99.90
21772;DHT22;11047;47.904;8.110;2023-11-18T03:20:21;1.30;99.90
21772;DHT22;11047;47.904;8.110;2023-11-18T03:22:49;1.00;99.90
21772;DHT22;11047;47.904;8.110;2023-11-18T03:25:17;1.00;99.90
21772;DHT22;11047;47.904;8.110;2023-11-18T03:27:44;0.90;99.90
21772;DHT22;11047;47.904;8.110;2023-11-18T03:30:12;0.90;99.90
21772;DHT22;11047;47.904;8.110;2023-11-18T03:32:40;0.80;99.90
21772;DHT22;11047;47.904;8.110;2023-11-18T03:35:08;1.30;99.90
21772;DHT22;11047;47.904;8.110;2023-11-18T03:37:35;0.80;99.90
21772;DHT22;11047;47.904;8.110;2023-11-18T03:40:05;0.80;99.90
21772;DHT22;11047;47.904;8.110;2023-11-18T03:42:32;0.80;99.90
21772;DHT22;11047;47.904;8.110;2023-11-18T03:44:59;0.90;99.90
21772;DHT22;11047;47.904;8.110;2023-11-18T03:47:26;0.80;99.90
21772;DHT22;11047;47.904;8.110;2023-11-18T03:49:54;0.80;99.90
21772;DHT22;11047;47.904;8.110;2023-11-18T03:52:21;0.90;99.90
21772;DHT22;11047;47.904;8.110;2023-11-18T03:54:48;0.90;99.90
21772;DHT22;11047;47.904;8.110;2023-11-18T03:57:15;0.90;99.90
21772;DHT22;11047;47.904;8.110;2023-11-18T03:59:42;1.00;99.90
21772;DHT22;11047;47.904;8.110;2023-11-18T04:02:09;0.90;99.90
21772;DHT22;11047;47.904;8.110;2023-11-18T04:04:36;0.90;99.90
21772;DHT22;11047;47.904;8.110;2023-11-18T04:07:05;0.90;99.90
21772;DHT22;11047;47.904;8.110;2023-11-18T04:09:32;0.80;99.90
21772;DHT22;11047;47.904;8.110;2023-11-18T04:11:58;1.50;99.90
21772;DHT22;11047;47.904;8.110;2023-11-18T04:14:25;1.20;99.90
21772;DHT22;11047;47.904;8.110;2023-11-18T04:16:52;0.70;99.90
21772;DHT22;11047;47.904;8.110;2023-11-18T04:19:20;0.70;99.90
21772;DHT22;11047;47.904;8.110;2023-11-18T04:21:47;0.80;99.90
21772;DHT22;11047;47.904;8.110;2023-11-18T04:24:16;0.70;99.90
21772;DHT22;11047;47.904;8.110;2023-11-18T04:26:43;0.70;99.90
21772;DHT22;11047;47.904;8.110;2023-11-18T04:29:10;0.70;99.90
21772;DHT22;11047;47.904;8.110;2023-11-18T04:31:36;0.70;99.90
21772;DHT22;11047;47.904;8.110;2023-11-18T04:34:04;0.60;99.90
21772;DHT22;11047;47.904;8.110;2023-11-18T04:36:31;0.60;99.90
21772;DHT22;11047;47.904;8.110;2023-11-18T04:38:58;0.70;99.90
21772;DHT22;11047;47.904;8.110;2023-11-18T04:41:26;0.70;99.90
21772;DHT22;11047;47.904;8.110;2023-11-18T04:43:53;0.70;99.90
21772;DHT22;11047;47.904;8.110;2023-11-18T04:46:21;0.70;99.90
21772;DHT22;11047;47.904;8.110;2023-11-18T04:48:48;0.90;99.90
21772;DHT22;11047;47.904;8.110;2023-11-18T04:51:14;0.80;99.90
21772;DHT22;11047;47.904;8.110;2023-11-18T04:53:43;0.80;99.90
21772;DHT22;11047;47.904;8.110;2023-11-18T04:56:10;0.80;99.90
21772;DHT22;11047;47.904;8.110;2023-11-18T04:58:39;0.70;99.90
21772;DHT22;11047;47.904;8.110;2023-11-18T05:01:06;0.60;99.90
21772;DHT22;11047;47.904;8.110;2023-11-18T05:03:34;0.90;99.90
21772;DHT22;11047;47.904;8.110;2023-11-18T05:06:02;0.60;99.90
21772;DHT22;11047;47.904;8.110;2023-11-18T05:08:30;0.60;99.90
21772;DHT22;11047;47.904;8.110;2023-11-18T05:10:59;1.20;99.90
21772;DHT22;11047;47.904;8.110;2023-11-18T05:13:25;0.80;99.90
21772;DHT22;11047;47.904;8.110;2023-11-18T05:15:54;1.20;99.90
21772;DHT22;11047;47.904;8.110;2023-11-18T05:18:21;0.50;99.90
21772;DHT22;11047;47.904;8.110;2023-11-18T05:20:48;0.50;99.90
21772;DHT22;11047;47.904;8.110;2023-11-18T05:23:14;0.90;99.90
21772;DHT22;11047;47.904;8.110;2023-11-18T05:25:42;0.40;99.90
21772;DHT22;11047;47.904;8.110;2023-11-18T05:28:09;0.40;99.90
21772;DHT22;11047;47.904;8.110;2023-11-18T05:30:37;1.00;99.90
21772;DHT22;11047;47.904;8.110;2023-11-18T05:33:05;0.40;99.90
21772;DHT22;11047;47.904;8.110;2023-11-18T05:35:33;0.40;99.90
21772;DHT22;11047;47.904;8.110;2023-11-18T05:38:00;0.50;99.90
21772;DHT22;11047;47.904;8.110;2023-11-18T05:40:28;0.40;99.90
21772;DHT22;11047;47.904;8.110;2023-11-18T05:42:55;0.40;99.90
21772;DHT22;11047;47.904;8.110;2023-11-18T05:45:24;0.70;99.90
21772;DHT22;11047;47.904;8.110;2023-11-18T05:47:57;0.40;99.90
21772;DHT22;11047;47.904;8.110;2023-11-18T05:50:25;0.40;99.90
21772;DHT22;11047;47.904;8.110;2023-11-18T05:52:53;0.40;99.90
21772;DHT22;11047;47.904;8.110;2023-11-18T05:55:20;1.00;99.90
21772;DHT22;11047;47.904;8.110;2023-11-18T05:57:47;0.40;99.90
21772;DHT22;11047;47.904;8.110;2023-11-18T06:00:15;0.40;99.90
21772;DHT22;11047;47.904;8.110;2023-11-18T06:02:44;0.40;99.90
21772;DHT22;11047;47.904;8.110;2023-11-18T06:05:12;0.50;99.90
21772;DHT22;11047;47.904;8.110;2023-11-18T06:07:41;0.50;99.90
21772;DHT22;11047;47.904;8.110;2023-11-18T06:10:09;0.50;99.90
21772;DHT22;11047;47.904;8.110;2023-11-18T06:12:37;0.50;99.90
21772;DHT22;11047;47.904;8.110;2023-11-18T06:15:07;0.50;99.90
21772;DHT22;11047;47.904;8.110;2023-11-18T06:17:39;0.50;99.90
21772;DHT22;11047;47.904;8.110;2023-11-18T06:20:08;0.60;99.90
21772;DHT22;11047;47.904;8.110;2023-11-18T06:22:36;0.60;99.90
21772;DHT22;11047;47.904;8.110;2023-11-18T06:25:05;0.60;99.90
21772;DHT22;11047;47.904;8.110;2023-11-18T06:27:34;0.60;99.90
21772;DHT22;11047;47.904;8.110;2023-11-18T06:30:01;0.60;99.90
21772;DHT22;11047;47.904;8.110;2023-11-18T06:32:28;0.60;99.90
21772;DHT22;11047;47.904;8.110;2023-11-18T06:34:56;1.00;99.90
21772;DHT22;11047;47.904;8.110;2023-11-18T06:37:24;0.70;99.90
21772;DHT22;11047;47.904;8.110;2023-11-18T06:39:50;0.80;99.90
21772;DHT22;11047;47.904;8.110;2023-11-18T06:42:19;1.40;99.90
21772;DHT22;11047;47.904;8.110;2023-11-18T06:44:49;1.30;99.90
21772;DHT22;11047;47.904;8.110;2023-11-18T06:47:16;0.70;99.90
21772;DHT22;11047;47.904;8.110;2023-11-18T06:49:45;0.80;99.90
21772;DHT22;11047;47.904;8.110;2023-11-18T06:52:13;1.10;99.90
21772;DHT22;11047;47.904;8.110;2023-11-18T06:54:41;0.90;99.90
21772;DHT22;11047;47.904;8.110;2023-11-18T06:57:07;0.90;99.90
21772;DHT22;11047;47.904;8.110;2023-11-18T06:59:36;0.90;99.90
21772;DHT22;11047;47.904;8.110;2023-11-18T07:02:03;1.00;99.90
21772;DHT22;11047;47.904;8.110;2023-11-18T07:04:31;0.90;99.90
21772;DHT22;11047;47.904;8.110;2023-11-18T07:06:58;1.30;99.90
21772;DHT22;11047;47.904;8.110;2023-11-18T07:09:25;1.10;99.90
21772;DHT22;11047;47.904;8.110;2023-11-18T07:11:52;0.90;99.90
21772;DHT22;11047;47.904;8.110;2023-11-18T07:14:21;1.50;99.90
21772;DHT22;11047;47.904;8.110;2023-11-18T07:16:50;1.00;99.90
21772;DHT22;11047;47.904;8.110;2023-11-18T07:19:16;1.20;99.90
21772;DHT22;11047;47.904;8.110;2023-11-18T07:21:45;1.10;99.90
21772;DHT22;11047;47.904;8.110;2023-11-18T07:24:12;1.10;99.90
21772;DHT22;11047;47.904;8.110;2023-11-18T07:26:39;1.20;99.90
21772;DHT22;11047;47.904;8.110;2023-11-18T07:29:06;1.30;99.90
21772;DHT22;11047;47.904;8.110;2023-11-18T07:31:33;1.30;99.90
21772;DHT22;11047;47.904;8.110;2023-11-18T07:34:03;1.30;99.90
21772;DHT22;11047;47.904;8.110;2023-11-18T07:36:31;1.40;99.90
21772;DHT22;11047;47.904;8.110;2023-11-18T07:39:04;1.30;99.90
21772;DHT22;11047;47.904;8.110;2023-11-18T07:41:41;1.40;99.90
21772;DHT22;11047;47.904;8.110;2023-11-18T07:44:08;1.40;99.90
21772;DHT22;11047;47.904;8.110;2023-11-18T07:46:38;1.40;99.90
21772;DHT22;11047;47.904;8.110;2023-11-18T07:49:09;1.40;99.90
21772;DHT22;11047;47.904;8.110;2023-11-18T07:51:36;1.40;99.90
21772;DHT22;11047;47.904;8.110;2023-11-18T07:54:03;1.80;99.90
21772;DHT22;11047;47.904;8.110;2023-11-18T07:56:30;1.50;99.90
21772;DHT22;11047;47.904;8.110;2023-11-18T07:58:57;1.70;99.90
21772;DHT22;11047;47.904;8.110;2023-11-18T08:01:24;1.70;99.90
21772;DHT22;11047;47.904;8.110;2023-11-18T08:03:52;1.70;99.90
21772;DHT22;11047;47.904;8.110;2023-11-18T08:06:21;1.80;99.90
21772;DHT22;11047;47.904;8.110;2023-11-18T08:08:51;1.90;99.90
21772;DHT22;11047;47.904;8.110;2023-11-18T08:11:19;1.90;99.90
21772;DHT22;11047;47.904;8.110;2023-11-18T08:13:46;1.90;99.90
21772;DHT22;11047;47.904;8.110;2023-11-18T08:16:13;2.00;99.90
21772;DHT22;11047;47.904;8.110;2023-11-18T08:18:41;2.10;99.90
21772;DHT22;11047;47.904;8.110;2023-11-18T08:21:08;2.20;99.90
21772;DHT22;11047;47.904;8.110;2023-11-18T08:23:36;2.20;99.90
21772;DHT22;11047;47.904;8.110;2023-11-18T08:26:04;2.30;99.90
21772;DHT22;11047;47.904;8.110;2023-11-18T08:28:32;2.50;99.90
21772;DHT22;11047;47.904;8.110;2023-11-18T08:30:59;2.70;99.90
21772;DHT22;11047;47.904;8.110;2023-11-18T08:33:26;2.80;99.90
21772;DHT22;11047;47.904;8.110;2023-11-18T08:35:54;2.90;99.90
21772;DHT22;11047;47.904;8.110;2023-11-18T08:38:22;2.80;99.90
21772;DHT22;11047;47.904;8.110;2023-11-18T08:40:52;3.50;99.90
21772;DHT22;11047;47.904;8.110;2023-11-18T08:43:21;3.70;99.90
21772;DHT22;11047;47.904;8.110;2023-11-18T08:45:48;2.80;99.90
21772;DHT22;11047;47.904;8.110;2023-11-18T08:48:16;3.20;99.90
21772;DHT22;11047;47.904;8.110;2023-11-18T08:50:44;3.00;99.90
21772;DHT22;11047;47.904;8.110;2023-11-18T08:53:12;3.00;99.90
21772;DHT22;11047;47.904;8.110;2023-11-18T08:55:44;3.00;99.90
21772;DHT22;11047;47.904;8.110;2023-11-18T08:58:18;3.00;99.90
21772;DHT22;11047;47.904;8.110;2023-11-18T09:00:55;3.10;99.90
21772;DHT22;11047;47.904;8.110;2023-11-18T09:03:29;3.40;99.90
21772;DHT22;11047;47.904;8.110;2023-11-18T09:06:01;3.40;99.90
21772;DHT22;11047;47.904;8.110;2023-11-18T09:08:30;3.30;99.90
21772;DHT22;11047;47.904;8.110;2023-11-18T09:11:01;3.30;99.90
21772;DHT22;11047;47.904;8.110;2023-11-18T09:13:29;3.30;99.90
21772;DHT22;11047;47.904;8.110;2023-11-18T09:15:57;3.30;99.90
21772;DHT22;11047;47.904;8.110;2023-11-18T09:18:26;3.40;99.90
21772;DHT22;11047;47.904;8.110;2023-11-18T09:20:54;3.30;99.90
21772;DHT22;11047;47.904;8.110;2023-11-18T09:23:22;3.30;99.90
21772;DHT22;11047;47.904;8.110;2023-11-18T09:25:51;3.40;99.90
21772;DHT22;11047;47.904;8.110;2023-11-18T09:28:19;3.40;99.90
21772;DHT22;11047;47.904;8.110;2023-11-18T09:30:47;3.30;99.90
21772;DHT22;11047;47.904;8.110;2023-11-18T09:33:20;3.30;99.90
21772;DHT22;11047;47.904;8.110;2023-11-18T09:35:55;3.30;99.90
21772;DHT22;11047;47.904;8.110;2023-11-18T09:38:27;3.40;99.90
21772;DHT22;11047;47.904;8.110;2023-11-18T09:40:56;3.50;99.90
21772;DHT22;11047;47.904;8.110;2023-11-18T09:43:26;3.50;99.90
21772;DHT22;11047;47.904;8.110;2023-11-18T09:46:04;3.40;99.90
21772;DHT22;11047;47.904;8.110;2023-11-18T09:48:42;3.50;99.90
21772;DHT22;11047;47.904;8.110;2023-11-18T09:51:16;3.50;99.90
21772;DHT22;11047;47.904;8.110;2023-11-18T09:53:46;3.60;99.90
21772;DHT22;11047;47.904;8.110;2023-11-18T09:56:19;3.60;99.90
21772;DHT22;11047;47.904;8.110;2023-11-18T09:59:01;3.60;99.90
21772;DHT22;11047;47.904;8.110;2023-11-18T10:01:38;3.70;99.90
21772;DHT22;11047;47.904;8.110;2023-11-18T10:04:05;3.60;99.90
21772;DHT22;11047;47.904;8.110;2023-11-18T10:06:35;4.20;99.90
21772;DHT22;11047;47.904;8.110;2023-11-18T10:09:02;3.90;99.90
21772;DHT22;11047;47.904;8.110;2023-11-18T10:11:41;4.00;99.90
21772;DHT22;11047;47.904;8.110;2023-11-18T10:14:08;3.90;99.90
21772;DHT22;11047;47.904;8.110;2023-11-18T10:16:38;3.80;99.90
21772;DHT22;11047;47.904;8.110;2023-11-18T10:19:05;4.30;99.90
21772;DHT22;11047;47.904;8.110;2023-11-18T10:21:35;4.90;99.90
21772;DHT22;11047;47.904;8.110;2023-11-18T10:24:06;4.00;99.90
21772;DHT22;11047;47.904;8.110;2023-11-18T10:26:40;4.10;99.90
21772;DHT22;11047;47.904;8.110;2023-11-18T10:29:09;4.10;99.90
21772;DHT22;11047;47.904;8.110;2023-11-18T10:31:38;4.10;99.90
21772;DHT22;11047;47.904;8.110;2023-11-18T10:34:11;4.20;99.90
21772;DHT22;11047;47.904;8.110;2023-11-18T10:36:41;4.70;99.90
21772;DHT22;11047;47.904;8.110;2023-11-18T10:39:13;4.20;99.90
21772;DHT22;11047;47.904;8.110;2023-11-18T10:41:43;4.30;99.90
21772;DHT22;11047;47.904;8.110;2023-11-18T10:44:13;4.40;99.90
21772;DHT22;11047;47.904;8.110;2023-11-18T10:46:52;4.30;99.90
21772;DHT22;11047;47.904;8.110;2023-11-18T10:49:20;4.40;99.90
21772;DHT22;11047;47.904;8.110;2023-11-18T10:51:47;4.30;99.90
21772;DHT22;11047;47.904;8.110;2023-11-18T10:54:14;4.30;99.90
21772;DHT22;11047;47.904;8.110;2023-11-18T10:56:46;4.40;99.90
21772;DHT22;11047;47.904;8.110;2023-11-18T10:59:14;4.40;99.90
21772;DHT22;11047;47.904;8.110;2023-11-18T11:01:42;5.20;99.90
21772;DHT22;11047;47.904;8.110;2023-11-18T11:04:12;4.60;99.90
21772;DHT22;11047;47.904;8.110;2023-11-18T11:06:44;4.60;99.90
21772;DHT22;11047;47.904;8.110;2023-11-18T11:09:17;4.60;99.90
21772;DHT22;11047;47.904;8.110;2023-11-18T11:11:48;4.70;99.90
21772;DHT22;11047;47.904;8.110;2023-11-18T11:14:15;4.80;99.90
21772;DHT22;11047;47.904;8.110;2023-11-18T11:16:47;4.80;99.90
21772;DHT22;11047;47.904;8.110;2023-11-18T11:19:24;4.80;99.90
21772;DHT22;11047;47.904;8.110;2023-11-18T11:22:04;4.80;99.90
21772;DHT22;11047;47.904;8.110;2023-11-18T11:24:41;4.80;99.90
21772;DHT22;11047;47.904;8.110;2023-11-18T11:27:19;5.00;99.90
21772;DHT22;11047;47.904;8.110;2023-11-18T11:29:59;5.00;99.90
21772;DHT22;11047;47.904;8.110;2023-11-18T11:32:38;5.00;99.90
21772;DHT22;11047;47.904;8.110;2023-11-18T11:35:16;5.00;99.90
21772;DHT22;11047;47.904;8.110;2023-11-18T11:37:47;5.00;99.90
21772;DHT22;11047;47.904;8.110;2023-11-18T11:40:16;4.90;99.90
21772;DHT22;11047;47.904;8.110;2023-11-18T11:42:49;5.00;99.90
21772;DHT22;11047;47.904;8.110;2023-11-18T11:45:22;5.10;99.90
21772;DHT22;11047;47.904;8.110;2023-11-18T11:47:55;5.00;99.90
21772;DHT22;11047;47.904;8.110;2023-11-18T11:50:52;5.50;99.90
21772;DHT22;11047;47.904;8.110;2023-11-18T11:53:23;5.00;99.90
21772;DHT22;11047;47.904;8.110;2023-11-18T11:55:53;5.00;99.90
21772;DHT22;11047;47.904;8.110;2023-11-18T11:58:31;5.00;99.90
21772;DHT22;11047;47.904;8.110;2023-11-18T12:00:59;5.10;99.90
21772;DHT22;11047;47.904;8.110;2023-11-18T12:03:33;5.10;99.90
21772;DHT22;11047;47.904;8.110;2023-11-18T12:06:07;5.00;99.90
21772;DHT22;11047;47.904;8.110;2023-11-18T12:08:35;5.10;99.90
21772;DHT22;11047;47.904;8.110;2023-11-18T12:11:04;5.10;99.90
21772;DHT22;11047;47.904;8.110;2023-11-18T12:13:35;5.10;99.90
21772;DHT22;11047;47.904;8.110;2023-11-18T12:16:06;5.10;99.90
21772;DHT22;11047;47.904;8.110;2023-11-18T12:18:35;5.10;99.90
21772;DHT22;11047;47.904;8.110;2023-11-18T12:21:03;5.10;99.90
21772;DHT22;11047;47.904;8.110;2023-11-18T12:23:31;5.10;99.90
21772;DHT22;11047;47.904;8.110;2023-11-18T12:26:00;5.20;99.90
21772;DHT22;11047;47.904;8.110;2023-11-18T12:28:29;5.50;99.90
21772;DHT22;11047;47.904;8.110;2023-11-18T12:31:00;5.20;99.90
21772;DHT22;11047;47.904;8.110;2023-11-18T12:34:00;5.20;99.90
21772;DHT22;11047;47.904;8.110;2023-11-18T12:37:04;5.20;99.90
21772;DHT22;11047;47.904;8.110;2023-11-18T12:42:58;5.20;99.90
21772;DHT22;11047;47.904;8.110;2023-11-18T12:45:51;5.20;99.90
21772;DHT22;11047;47.904;8.110;2023-11-18T12:48:27;5.20;99.90
21772;DHT22;11047;47.904;8.110;2023-11-18T12:50:58;5.10;99.90
21772;DHT22;11047;47.904;8.110;2023-11-18T12:53:25;5.10;99.90
21772;DHT22;11047;47.904;8.110;2023-11-18T12:55:52;5.20;99.90
21772;DHT22;11047;47.904;8.110;2023-11-18T12:58:20;5.20;99.90
21772;DHT22;11047;47.904;8.110;2023-11-18T13:00:48;5.10;99.90
21772;DHT22;11047;47.904;8.110;2023-11-18T13:03:15;5.20;99.90
21772;DHT22;11047;47.904;8.110;2023-11-18T13:05:43;5.20;99.90
21772;DHT22;11047;47.904;8.110;2023-11-18T13:08:11;5.30;99.90
21772;DHT22;11047;47.904;8.110;2023-11-18T13:10:38;5.30;99.90
21772;DHT22;11047;47.904;8.110;2023-11-18T13:13:06;5.30;99.90
21772;DHT22;11047;47.904;8.110;2023-11-18T13:15:36;5.10;99.90
21772;DHT22;11047;47.904;8.110;2023-11-18T13:18:05;5.20;99.90
21772;DHT22;11047;47.904;8.110;2023-11-18T13:20:32;5.40;99.90
21772;DHT22;11047;47.904;8.110;2023-11-18T13:23:01;5.20;99.90
21772;DHT22;11047;47.904;8.110;2023-11-18T13:25:34;5.20;99.90
21772;DHT22;11047;47.904;8.110;2023-11-18T13:28:03;5.20;99.90
21772;DHT22;11047;47.904;8.110;2023-11-18T13:30:30;5.10;99.90
21772;DHT22;11047;47.904;8.110;2023-11-18T13:32:59;5.00;99.90
21772;DHT22;11047;47.904;8.110;2023-11-18T13:35:27;5.10;99.90
21772;DHT22;11047;47.904;8.110;2023-11-18T13:37:54;5.00;99.90
21772;DHT22;11047;47.904;8.110;2023-11-18T13:40:21;5.00;99.90
21772;DHT22;11047;47.904;8.110;2023-11-18T13:43:01;5.00;99.90
21772;DHT22;11047;47.904;8.110;2023-11-18T13:45:28;5.00;99.90
21772;DHT22;11047;47.904;8.110;2023-11-18T13:47:56;5.00;99.90
21772;DHT22;11047;47.904;8.110;2023-11-18T13:50:24;5.10;99.90
21772;DHT22;11047;47.904;8.110;2023-11-18T13:52:52;5.00;99.90
21772;DHT22;11047;47.904;8.110;2023-11-18T13:55:20;5.10;99.90
21772;DHT22;11047;47.904;8.110;2023-11-18T13:57:53;5.10;99.90
21772;DHT22;11047;47.904;8.110;2023-11-18T14:00:22;5.10;99.90
21772;DHT22;11047;47.904;8.110;2023-11-18T14:02:53;5.10;99.90
21772;DHT22;11047;47.904;8.110;2023-11-18T14:05:21;5.10;99.90
21772;DHT22;11047;47.904;8.110;2023-11-18T14:07:51;5.10;99.90
21772;DHT22;11047;47.904;8.110;2023-11-18T14:10:21;5.00;99.90
21772;DHT22;11047;47.904;8.110;2023-11-18T14:13:01;5.00;99.90
21772;DHT22;11047;47.904;8.110;2023-11-18T14:15:28;5.00;99.90
21772;DHT22;11047;47.904;8.110;2023-11-18T14:17:56;5.00;99.90
21772;DHT22;11047;47.904;8.110;2023-11-18T14:20:23;5.10;99.90
21772;DHT22;11047;47.904;8.110;2023-11-18T14:22:51;4.90;99.90
21772;DHT22;11047;47.904;8.110;2023-11-18T14:25:19;4.90;99.90
21772;DHT22;11047;47.904;8.110;2023-11-18T14:27:49;5.00;99.90
21772;DHT22;11047;47.904;8.110;2023-11-18T14:30:16;5.00;99.90
21772;DHT22;11047;47.904;8.110;2023-11-18T14:32:45;5.00;99.90
21772;DHT22;11047;47.904;8.110;2023-11-18T14:35:13;5.10;99.90
21772;DHT22;11047;47.904;8.110;2023-11-18T14:37:42;5.10;99.90
21772;DHT22;11047;47.904;8.110;2023-11-18T14:40:12;5.00;99.90
21772;DHT22;11047;47.904;8.110;2023-11-18T14:42:41;5.00;99.90
21772;DHT22;11047;47.904;8.110;2023-11-18T14:45:10;5.00;99.90
21772;DHT22;11047;47.904;8.110;2023-11-18T14:47:38;5.10;99.90
21772;DHT22;11047;47.904;8.110;2023-11-18T14:50:06;5.20;99.90
21772;DHT22;11047;47.904;8.110;2023-11-18T14:52:41;5.30;99.90
21772;DHT22;11047;47.904;8.110;2023-11-18T14:55:09;5.30;99.90
21772;DHT22;11047;47.904;8.110;2023-11-18T14:57:39;5.20;99.90
21772;DHT22;11047;47.904;8.110;2023-11-18T15:00:07;5.20;99.90
21772;DHT22;11047;47.904;8.110;2023-11-18T15:02:34;5.20;99.90
21772;DHT22;11047;47.904;8.110;2023-11-18T15:05:01;5.70;99.90
21772;DHT22;11047;47.904;8.110;2023-11-18T15:07:31;5.30;99.90
21772;DHT22;11047;47.904;8.110;2023-11-18T15:09:57;5.20;99.90
21772;DHT22;11047;47.904;8.110;2023-11-18T15:12:24;5.00;99.90
21772;DHT22;11047;47.904;8.110;2023-11-18T15:14:52;5.00;99.90
21772;DHT22;11047;47.904;8.110;2023-11-18T15:17:19;4.80;99.90
21772;DHT22;11047;47.904;8.110;2023-11-18T15:19:47;4.80;99.90
21772;DHT22;11047;47.904;8.110;2023-11-18T15:22:16;4.70;99.90
21772;DHT22;11047;47.904;8.110;2023-11-18T15:24:43;4.70;99.90
21772;DHT22;11047;47.904;8.110;2023-11-18T15:27:10;4.70;99.90
21772;DHT22;11047;47.904;8.110;2023-11-18T15:29:37;4.70;99.90
21772;DHT22;11047;47.904;8.110;2023-11-18T15:32:12;4.70;99.90
21772;DHT22;11047;47.904;8.110;2023-11-18T15:34:39;4.80;99.90
21772;DHT22;11047;47.904;8.110;2023-11-18T15:37:06;4.80;99.90
21772;DHT22;11047;47.904;8.110;2023-11-18T15:39:32;4.80;99.90
21772;DHT22;11047;47.904;8.110;2023-11-18T15:42:01;4.80;99.90
21772;DHT22;11047;47.904;8.110;2023-11-18T15:44:31;4.60;99.90
21772;DHT22;11047;47.904;8.110;2023-11-18T15:46:59;4.60;99.90
21772;DHT22;11047;47.904;8.110;2023-11-18T15:49:27;4.60;99.90
21772;DHT22;11047;47.904;8.110;2023-11-18T15:51:54;4.60;99.90
21772;DHT22;11047;47.904;8.110;2023-11-18T15:54:21;4.50;99.90
21772;DHT22;11047;47.904;8.110;2023-11-18T15:56:47;4.50;99.90
21772;DHT22;11047;47.904;8.110;2023-11-18T15:59:14;4.40;99.90